Coastal Inspiration — CFN4970 — position and weather

sailwx.info

Track history (hours):
 
Tides and Currents Weather Stations Pressure Air Temp Water Temp Dewpoint Dewpoint Depression Visibility Wind Speed Wind Dir Waves Ship Positions

Coastal Inspiration

Last reported at 2016-Sep-25 09:31 UTC. Time now 2016-Sep-25 10:32 UTC.
Position N 49°10' W 123°53'.

Length 160 m; draft 6 m.

Type: Ship. MMSI: 316011408.

Date/timePositionNaut miles runAvg speedWind from/ knotsBaromVisibWave heightAir tempDewpointWater temp
2016-Sep-25 09:31N 49°10' W 123°53'0 0.0
2016-Sep-25 07:31N 49°10' W 123°53'0 0.0
2016-Sep-25 04:17N 49°10' W 123°53'31 8.4
2016-Sep-25 00:33N 49°00' W 123°08'3014.9
2016-Sep-24 22:34N 49°13' W 123°49'3 2.7
2016-Sep-24 21:33N 49°12' W 123°53'3215.8
2016-Sep-24 19:33N 49°00' W 123°08'1110.8
2016-Sep-24 18:33N 49°04' W 123°24'1919.1
2016-Sep-24 17:33N 49°13' W 123°49'3 3.3
2016-Sep-24 16:33N 49°11' W 123°53'3215.8
2016-Sep-24 14:33N 49°00' W 123°08'3014.8
2016-Sep-24 12:33N 49°13' W 123°49'5 2.2
2016-Sep-24 10:32N 49°10' W 123°53'0 0.0
2016-Sep-24 09:32N 49°10' W 123°53'4 0.7
2016-Sep-24 03:33N 49°13' W 123°49'2 2.2
2016-Sep-24 02:33N 49°12' W 123°52'2120.8
2016-Sep-24 01:33N 49°05' W 123°22'1010.5
2016-Sep-24 00:33N 49°00' W 123°08'0 0.0
2016-Sep-23 19:33N 49°00' W 123°08'3215.7
2016-Sep-23 17:33N 49°12' W 123°53'1 0.7
2016-Sep-23 16:34N 49°13' W 123°52'1918.7
2016-Sep-23 15:34N 49°06' W 123°25'2 1.1
2016-Sep-23 13:33N 49°04' W 123°25'20 4.9
2016-Sep-23 09:33N 49°10' W 123°53'16 5.4
2016-Sep-23 06:33N 49°07' W 123°29'4 1.9
2016-Sep-23 04:34N 49°04' W 123°27'1919.1
2016-Sep-23 03:33N 49°12' W 123°53'3 2.5
2016-Sep-23 02:33N 49°13' W 123°49'2020.2
2016-Sep-23 01:33N 49°05' W 123°21'10 9.7
2016-Sep-23 00:33N 49°00' W 123°08'1313.1
2016-Sep-22 23:33N 49°05' W 123°27'2 0.6
2016-Sep-22 20:33N 49°07' W 123°27'16 2.0
2016-Sep-22 12:34N 49°13' W 123°50'19 2.4
2016-Sep-22 04:33N 49°03' W 123°24'1918.8
2016-Sep-22 03:33N 49°13' W 123°49'30 9.9
2016-Sep-22 00:34N 49°00' W 123°08'1111.5
2016-Sep-21 23:34N 49°04' W 123°25'1918.6
2016-Sep-21 22:33N 49°13' W 123°49'3010.0
2016-Sep-21 19:33N 49°00' W 123°08'3210.5
2016-Sep-21 16:33N 49°11' W 123°53'1 0.2
2016-Sep-21 09:33N 49°10' W 123°53'0 0.0
2016-Sep-21 08:33N 49°10' W 123°53'3110.4
2016-Sep-21 05:33N 49°00' W 123°08'3115.3
2016-Sep-21 03:33N 49°13' W 123°51'1 1.1
2016-Sep-21 02:33N 49°12' W 123°52'2 0.3
2016-Sep-20 17:33N 49°13' W 123°49'30 9.6
2016-Sep-20 14:26N 49°00' W 123°08'1416.1
2016-Sep-20 13:33N 49°05' W 123°28'17 5.7
2016-Sep-20 10:32N 49°10' W 123°53'0 0.0
2016-Sep-20 08:31N 49°10' W 123°53'1 0.6
2016-Sep-20 07:34N 49°10' W 123°53'1717.2
2016-Sep-20 06:33N 49°07' W 123°27'18 4.5
2016-Sep-20 02:33N 49°12' W 123°53'21 6.9
2016-Sep-19 23:33N 49°04' W 123°24'11 2.8
2016-Sep-19 19:33N 49°00' W 123°08'1110.6
2016-Sep-19 18:33N 49°03' W 123°23'2110.5
2016-Sep-19 16:33N 49°11' W 123°53'3215.8
2016-Sep-19 14:33N 49°00' W 123°08'1212.0
2016-Sep-19 13:34N 49°04' W 123°25'1818.3
2016-Sep-19 12:33N 49°13' W 123°50'4 3.8
2016-Sep-19 11:31N 49°10' W 123°53'0 0.0
2016-Sep-19 09:30N 49°10' W 123°53'1 0.5
2016-Sep-19 07:33N 49°11' W 123°53'1716.9
2016-Sep-19 06:33N 49°07' W 123°28'17 5.7
2016-Sep-19 03:33N 49°11' W 123°53'0 0.3
2016-Sep-19 02:33N 49°12' W 123°53'3215.9
2016-Sep-19 00:33N 49°00' W 123°08'0 0.0
2016-Sep-18 19:33N 49°00' W 123°08'31 7.2
2016-Sep-18 15:13N 49°10' W 123°53'0 0.0
2016-Sep-18 14:31N 49°10' W 123°53'0 0.0
2016-Sep-18 10:29N 49°10' W 123°53'4 0.5
2016-Sep-18 02:33N 49°13' W 123°50'1918.6
2016-Sep-18 01:33N 49°06' W 123°24'1211.5
2016-Sep-18 00:33N 49°00' W 123°08'3115.3
2016-Sep-17 22:33N 49°13' W 123°51'0 0.5
2016-Sep-17 21:31N 49°13' W 123°51'1818.3
2016-Sep-17 20:33N 49°06' W 123°26'1310.4
2016-Sep-17 19:16N 49°00' W 123°08'12 2.1
2016-Sep-17 13:33N 49°04' W 123°25'1817.9
2016-Sep-17 12:33N 49°13' W 123°50'4 1.9
2016-Sep-17 10:24N 49°10' W 123°53'0 0.0
2016-Sep-17 09:29N 49°10' W 123°53'0 0.0
2016-Sep-17 08:17N 49°10' W 123°53'0 0.7
2016-Sep-17 07:33N 49°10' W 123°53'3115.7
2016-Sep-17 05:33N 49°00' W 123°08'1312.8
2016-Sep-17 04:33N 49°04' W 123°26'13 3.2
2016-Sep-17 00:33N 49°00' W 123°08'30 4.3
2016-Sep-16 17:33N 49°13' W 123°50'16 8.2
2016-Sep-16 15:33N 49°06' W 123°27'17 5.6
2016-Sep-16 12:33N 49°13' W 123°50'4 1.1
2016-Sep-16 09:26N 49°10' W 123°53'0 0.1
2016-Sep-16 07:33N 49°10' W 123°53'5 1.1
2016-Sep-16 03:34N 49°13' W 123°48'3 3.4
2016-Sep-16 02:33N 49°12' W 123°53'3215.8
2016-Sep-16 00:34N 49°00' W 123°08'3115.6
2016-Sep-15 22:33N 49°12' W 123°52'1 1.0
2016-Sep-15 21:33N 49°12' W 123°53'1918.8
2016-Sep-15 20:33N 49°06' W 123°26'3 1.6
2016-Sep-15 18:33N 49°03' W 123°24'19 3.2
2016-Sep-15 12:33N 49°13' W 123°49'4 4.2
2016-Sep-15 11:33N 49°10' W 123°53'  
Track history (hours):
 
Tides and Currents Weather Stations Pressure Air Temp Water Temp Dewpoint Dewpoint Depression Visibility Wind Speed Wind Dir Waves Ship Positions

Coastal Inspiration

Last reported at 2016-Sep-25 09:31 UTC. Time now 2016-Sep-25 10:32 UTC.
Position N 49°10' W 123°53'.

Length 160 m; draft 6 m.

Type: Ship. MMSI: 316011408.

Date/timePositionNaut miles runAvg speedWind from/ knotsBaromVisibWave heightAir tempDewpointWater temp
2016-Sep-25 09:31N 49°10' W 123°53'0 0.0
2016-Sep-25 07:31N 49°10' W 123°53'0 0.0
2016-Sep-25 04:17N 49°10' W 123°53'31 8.4
2016-Sep-25 00:33N 49°00' W 123°08'3014.9
2016-Sep-24 22:34N 49°13' W 123°49'3 2.7
2016-Sep-24 21:33N 49°12' W 123°53'3215.8
2016-Sep-24 19:33N 49°00' W 123°08'1110.8
2016-Sep-24 18:33N 49°04' W 123°24'1919.1
2016-Sep-24 17:33N 49°13' W 123°49'3 3.3
2016-Sep-24 16:33N 49°11' W 123°53'3215.8
2016-Sep-24 14:33N 49°00' W 123°08'3014.8
2016-Sep-24 12:33N 49°13' W 123°49'5 2.2
2016-Sep-24 10:32N 49°10' W 123°53'0 0.0
2016-Sep-24 09:32N 49°10' W 123°53'4 0.7
2016-Sep-24 03:33N 49°13' W 123°49'2 2.2
2016-Sep-24 02:33N 49°12' W 123°52'2120.8
2016-Sep-24 01:33N 49°05' W 123°22'1010.5
2016-Sep-24 00:33N 49°00' W 123°08'0 0.0
2016-Sep-23 19:33N 49°00' W 123°08'3215.7
2016-Sep-23 17:33N 49°12' W 123°53'1 0.7
2016-Sep-23 16:34N 49°13' W 123°52'1918.7
2016-Sep-23 15:34N 49°06' W 123°25'2 1.1
2016-Sep-23 13:33N 49°04' W 123°25'20 4.9
2016-Sep-23 09:33N 49°10' W 123°53'16 5.4
2016-Sep-23 06:33N 49°07' W 123°29'4 1.9
2016-Sep-23 04:34N 49°04' W 123°27'1919.1
2016-Sep-23 03:33N 49°12' W 123°53'3 2.5
2016-Sep-23 02:33N 49°13' W 123°49'2020.2
2016-Sep-23 01:33N 49°05' W 123°21'10 9.7
2016-Sep-23 00:33N 49°00' W 123°08'1313.1
2016-Sep-22 23:33N 49°05' W 123°27'2 0.6
2016-Sep-22 20:33N 49°07' W 123°27'16 2.0
2016-Sep-22 12:34N 49°13' W 123°50'19 2.4
2016-Sep-22 04:33N 49°03' W 123°24'1918.8
2016-Sep-22 03:33N 49°13' W 123°49'30 9.9
2016-Sep-22 00:34N 49°00' W 123°08'1111.5
2016-Sep-21 23:34N 49°04' W 123°25'1918.6
2016-Sep-21 22:33N 49°13' W 123°49'3010.0
2016-Sep-21 19:33N 49°00' W 123°08'3210.5
2016-Sep-21 16:33N 49°11' W 123°53'1 0.2
2016-Sep-21 09:33N 49°10' W 123°53'0 0.0
2016-Sep-21 08:33N 49°10' W 123°53'3110.4
2016-Sep-21 05:33N 49°00' W 123°08'3115.3
2016-Sep-21 03:33N 49°13' W 123°51'1 1.1
2016-Sep-21 02:33N 49°12' W 123°52'2 0.3
2016-Sep-20 17:33N 49°13' W 123°49'30 9.6
2016-Sep-20 14:26N 49°00' W 123°08'1416.1
2016-Sep-20 13:33N 49°05' W 123°28'17 5.7
2016-Sep-20 10:32N 49°10' W 123°53'0 0.0
2016-Sep-20 08:31N 49°10' W 123°53'1 0.6
2016-Sep-20 07:34N 49°10' W 123°53'1717.2
2016-Sep-20 06:33N 49°07' W 123°27'18 4.5
2016-Sep-20 02:33N 49°12' W 123°53'21 6.9
2016-Sep-19 23:33N 49°04' W 123°24'11 2.8
2016-Sep-19 19:33N 49°00' W 123°08'1110.6
2016-Sep-19 18:33N 49°03' W 123°23'2110.5
2016-Sep-19 16:33N 49°11' W 123°53'3215.8
2016-Sep-19 14:33N 49°00' W 123°08'1212.0
2016-Sep-19 13:34N 49°04' W 123°25'1818.3
2016-Sep-19 12:33N 49°13' W 123°50'4 3.8
2016-Sep-19 11:31N 49°10' W 123°53'0 0.0
2016-Sep-19 09:30N 49°10' W 123°53'1 0.5
2016-Sep-19 07:33N 49°11' W 123°53'1716.9
2016-Sep-19 06:33N 49°07' W 123°28'17 5.7
2016-Sep-19 03:33N 49°11' W 123°53'0 0.3
2016-Sep-19 02:33N 49°12' W 123°53'3215.9
2016-Sep-19 00:33N 49°00' W 123°08'0 0.0
2016-Sep-18 19:33N 49°00' W 123°08'31 7.2
2016-Sep-18 15:13N 49°10' W 123°53'0 0.0
2016-Sep-18 14:31N 49°10' W 123°53'0 0.0
2016-Sep-18 10:29N 49°10' W 123°53'4 0.5
2016-Sep-18 02:33N 49°13' W 123°50'1918.6
2016-Sep-18 01:33N 49°06' W 123°24'1211.5
2016-Sep-18 00:33N 49°00' W 123°08'3115.3
2016-Sep-17 22:33N 49°13' W 123°51'0 0.5
2016-Sep-17 21:31N 49°13' W 123°51'1818.3
2016-Sep-17 20:33N 49°06' W 123°26'1310.4
2016-Sep-17 19:16N 49°00' W 123°08'12 2.1
2016-Sep-17 13:33N 49°04' W 123°25'1817.9
2016-Sep-17 12:33N 49°13' W 123°50'4 1.9
2016-Sep-17 10:24N 49°10' W 123°53'0 0.0
2016-Sep-17 09:29N 49°10' W 123°53'0 0.0
2016-Sep-17 08:17N 49°10' W 123°53'0 0.7
2016-Sep-17 07:33N 49°10' W 123°53'3115.7
2016-Sep-17 05:33N 49°00' W 123°08'1312.8
2016-Sep-17 04:33N 49°04' W 123°26'13 3.2
2016-Sep-17 00:33N 49°00' W 123°08'30 4.3
2016-Sep-16 17:33N 49°13' W 123°50'16 8.2
2016-Sep-16 15:33N 49°06' W 123°27'17 5.6
2016-Sep-16 12:33N 49°13' W 123°50'4 1.1
2016-Sep-16 09:26N 49°10' W 123°53'0 0.1
2016-Sep-16 07:33N 49°10' W 123°53'5 1.1
2016-Sep-16 03:34N 49°13' W 123°48'3 3.4
2016-Sep-16 02:33N 49°12' W 123°53'3215.8
2016-Sep-16 00:34N 49°00' W 123°08'3115.6
2016-Sep-15 22:33N 49°12' W 123°52'1 1.0
2016-Sep-15 21:33N 49°12' W 123°53'1918.8
2016-Sep-15 20:33N 49°06' W 123°26'3 1.6
2016-Sep-15 18:33N 49°03' W 123°24'19 3.2
2016-Sep-15 12:33N 49°13' W 123°49'4 4.2
2016-Sep-15 11:33N 49°10' W 123°53'  

Dump ship's entire track history